• Join FlightAware (Why Join?)
  • Login
  • US Flag 
10:22AM EDT


 

Airport Tracker/Info


-or-


 

Live Flight TrackerFlight Track Log ✈ DAL470 ✈ 27-Mar-2014 ✈ KJFK - EHAM / AMS

Flight Track Log - Related Links

Times and Time Zones

All times are in EDT time to prevent confusion due to time zone crossing. See the DAL470 flight status page for this flight to view local times or setup timezone preferences in your user account.

Time Position Orientation Groundspeed Altitude Reporting Facility
EDT Latitude Longitude Course Direction KTS MPH feet Rate Location/Type
05:55PM 40.6103 -73.7958 79° East 151 174 1,500  Level Boston Center
05:56PM 40.5667 -73.8000 184° South 212 244 2,400 1,080 Climbing New York TRACON
05:58PM 40.5574 -73.1313 97° East  Level FlightAware Approximate
05:58PM 40.4975 -73.6111 116° Southeast 272 313 5,000  Level Boston Center
05:59PM 40.5656 -72.9687 57° Northeast  Level FlightAware Approximate
05:59PM 40.4772 -73.5139 105° East 293 337 5,000  Level Boston Center
06:00PM 40.6059 -72.8085 79° East  Level FlightAware Approximate
06:00PM 40.4950 -73.4133 77° East 287 330 7,000  Level Boston Center
06:01PM 40.5128 -73.3022 78° East 307 353 9,000 1,680 Climbing Boston Center
06:02PM 40.5317 -73.1861 78° East 325 374 10,600 1,200 Climbing Boston Center
06:03PM 40.5522 -73.0522 79° East 372 428 11,500 1,500 Climbing Boston Center
06:04PM 40.5917 -72.8814 73° East 409 471 13,700 1,860 Climbing Boston Center
06:05PM 40.6294 -72.7389 71° East 412 474 15,300 1,620 Climbing Boston Center
06:06PM 40.6667 -72.5911 72° East 426 490 17,100 1,440 Climbing Boston Center
06:07PM 40.7044 -72.4400 72° East 439 505 18,300 1,440 Climbing Boston Center
06:08PM 40.7500 -72.2614 71° East 444 511 20,100 1,320 Climbing Boston Center
06:10PM 40.7842 -72.1239 72° East 447 514 21,100 960 Climbing Boston Center
06:15PM 41.0905 -71.1534 56° Northeast 493 567 27,000 1,020 Climbing FlightAware ADS-B (KASH)
06:16PM 41.1391 -71.0614 56° Northeast 495 570 27,700 960 Climbing FlightAware ADS-B (KASH)
06:17PM 41.1894 -70.9664 55° Northeast 501 577 28,200 720 Climbing FlightAware ADS-B (KASH)
06:17PM 41.2294 -70.8904 55° Northeast 504 580 28,500 660 Climbing FlightAware ADS-B (KASH)
06:18PM 41.3187 -70.7205 55° Northeast 510 587 29,300 600 Climbing FlightAware ADS-B (ZSSL)
06:19PM 41.4038 -70.5575 55° Northeast 515 593 29,900 600 Climbing FlightAware ADS-B (ZSSL)
06:20PM 41.4497 -70.4692 55° Northeast 519 597 30,300 540 Climbing FlightAware ADS-B (KOWD)
06:21PM 41.5110 -70.3510 56° Northeast 521 600 30,700 600 Climbing FlightAware ADS-B (KOWD)
06:21PM 41.5516 -70.2725 56° Northeast 521 600 31,100 840 Climbing FlightAware ADS-B (KOWD)
06:22PM 41.6026 -70.1734 56° Northeast 518 596 31,700 720 Climbing FlightAware ADS-B (KOWD)
06:22PM 41.6486 -70.0836 56° Northeast 518 596 32,000 420 Climbing FlightAware ADS-B (ZSSL)
06:23PM 41.6950 -69.9930 56° Northeast 519 597 32,200 600 Climbing FlightAware ADS-B (KASH)
06:23PM 41.7285 -69.9272 56° Northeast 518 596 32,700 780 Climbing FlightAware ADS-B (KOWD)
06:24PM 41.7714 -69.8428 56° Northeast 517 595 33,200 840 Climbing FlightAware ADS-B (KBOS)
06:25PM 41.8568 -69.6744 57° Northeast 505 581 34,000 780 Climbing FlightAware ADS-B (KASH)
06:25PM 41.8986 -69.5916 57° Northeast 506 582 34,300 540 Climbing FlightAware ADS-B (KASH)
06:25PM 41.9158 -69.5574 57° Northeast 506 582 34,400 300 Climbing FlightAware ADS-B (KASH)
06:26PM 41.9709 -69.4480 56° Northeast 513 590 34,600 240 Climbing FlightAware ADS-B (KASH)
06:27PM 41.9962 -69.3976 57° Northeast 510 587 34,700 480 Climbing FlightAware ADS-B (KASH)
06:27PM 42.0370 -69.3157 57° Northeast 508 585 35,000 240 Climbing FlightAware ADS-B (KASH)
06:28PM 42.0682 -69.2530 56° Northeast 508 585 35,000  Level FlightAware ADS-B (CYQI)
06:28PM 42.1182 -69.1526 56° Northeast 507 583 35,000  Level FlightAware ADS-B (KBOS)
06:29PM 42.1654 -69.0575 56° Northeast 508 585 35,000  Level FlightAware ADS-B (KBOS)
06:29PM 42.2018 -68.9839 56° Northeast 506 582 35,000  Level FlightAware ADS-B (KBOS)
06:29PM 42.2263 -68.9343 57° Northeast 503 579 35,000  Level FlightAware ADS-B (KASH)
06:30PM 42.2688 -68.8480 57° Northeast 506 582 35,000  Level FlightAware ADS-B (KBOS)
06:31PM 42.3109 -68.7623 57° Northeast 505 581 35,000  Level FlightAware ADS-B (KBOS)
06:31PM 42.3390 -68.7049 57° Northeast 504 580 35,000  Level FlightAware ADS-B (CYQI)
06:32PM 42.3917 -68.5970 57° Northeast 503 579 35,000  Level FlightAware ADS-B (KBOS)
06:32PM 42.4404 -68.4969 57° Northeast 502 578 35,000  Level FlightAware ADS-B (CYQI)
06:33PM 42.4841 -68.4068 57° Northeast 501 577 35,000  Level FlightAware ADS-B (CYQI)
06:33PM 42.5364 -68.2989 57° Northeast 502 578 35,000  Level FlightAware ADS-B (KASH)
06:34PM 42.5689 -68.2314 57° Northeast 502 578 35,000  Level FlightAware ADS-B (CYQI)
06:35PM 42.6100 -68.1460 57° Northeast 501 577 35,000  Level FlightAware ADS-B (CYQI)
06:35PM 42.6620 -68.0375 57° Northeast 500 575 35,000  Level FlightAware ADS-B (CYQI)
06:36PM 42.7064 -67.9444 57° Northeast 500 575 35,000  Level FlightAware ADS-B (CYQI)
06:36PM 42.7499 -67.8531 57° Northeast 502 578 35,000  Level FlightAware ADS-B (CYQI)
06:37PM 42.7937 -67.7609 57° Northeast 504 580 35,000  Level FlightAware ADS-B (CYQI)
06:37PM 42.8282 -67.6881 57° Northeast 506 582 35,000  Level FlightAware ADS-B (CYQI)
06:38PM 42.8832 -67.5714 57° Northeast 507 583 35,000  Level FlightAware ADS-B (CYQI)
06:39PM 42.9263 -67.4799 57° Northeast 507 583 35,000  Level FlightAware ADS-B (CYQI)
06:39PM 42.9744 -67.3772 58° Northeast 503 579 35,000  Level FlightAware ADS-B (CYQI)
06:40PM 43.0150 -67.2900 58° Northeast 502 578 35,000  Level FlightAware ADS-B (CYQI)
06:40PM 43.0641 -67.1847 58° Northeast 501 577 35,000  Level FlightAware ADS-B (CYQI)
06:41PM 43.1215 -67.0612 58° Northeast 507 583 35,000  Level FlightAware ADS-B (CYQI)
06:42PM 43.1706 -66.9549 58° Northeast 507 583 35,000  Level FlightAware ADS-B (CYQI)
06:42PM 43.2014 -66.8892 57° Northeast 509 586 35,000  Level FlightAware ADS-B (CYQI)
06:43PM 43.2619 -66.7599 58° Northeast 512 589 35,000  Level FlightAware ADS-B (CYQI)
06:44PM 43.3102 -66.6562 58° Northeast 511 588 35,000  Level FlightAware ADS-B (CYQI)
06:44PM 43.3582 -66.5528 58° Northeast 514 592 35,000  Level FlightAware ADS-B (CYQI)
06:45PM 43.4029 -66.4560 58° Northeast 516 594 35,000  Level FlightAware ADS-B (CYQI)
06:45PM 43.4433 -66.3680 58° Northeast 516 594 35,000  Level FlightAware ADS-B (CYQI)
06:46PM 43.4956 -66.2537 58° Northeast 514 592 35,000  Level FlightAware ADS-B (CYQI)
06:47PM 43.5473 -66.1406 58° Northeast 512 589 35,000  Level FlightAware ADS-B (CYQI)
06:47PM 43.5876 -66.0518 58° Northeast 508 585 35,000  Level FlightAware ADS-B (CYQI)
06:48PM 43.6268 -65.9652 58° Northeast 496 571 35,000  Level FlightAware ADS-B (CYQI)
06:49PM 43.6761 -65.8563 58° Northeast 491 565 35,000  Level FlightAware ADS-B (CYQI)
06:49PM 43.7125 -65.7755 58° Northeast 492 566 35,000  Level FlightAware ADS-B (CYQI)
06:50PM 43.7598 -65.6708 58° Northeast 493 567 35,000  Level FlightAware ADS-B (CYQI)
06:50PM 43.8133 -65.5514 58° Northeast 493 567 35,000  Level FlightAware ADS-B (CYQI)
06:51PM 43.8490 -65.4717 59° Northeast 495 570 35,000  Level FlightAware ADS-B (CYQI)
06:51PM 43.8839 -65.3930 59° Northeast 496 571 35,000  Level FlightAware ADS-B (CYQI)
06:52PM 43.9316 -65.2850 59° Northeast 497 572 35,000  Level FlightAware ADS-B (CYQI)
06:53PM 43.9726 -65.1921 59° Northeast 497 572 35,000  Level FlightAware ADS-B (CYQI)
06:53PM 44.0218 -65.0803 59° Northeast 496 571 35,000  Level FlightAware ADS-B (CYQI)
06:54PM 44.0606 -64.9919 59° Northeast 496 571 35,000  Level FlightAware ADS-B (CYQI)
06:54PM 44.0960 -64.9112 59° Northeast 497 572 35,000  Level FlightAware ADS-B (CYQI)
06:55PM 44.1345 -64.8234 59° Northeast 498 573 35,000  Level FlightAware ADS-B (CYQI)
06:56PM 44.1847 -64.7075 59° Northeast 500 575 35,000  Level FlightAware ADS-B (CYQI)
06:56PM 44.2232 -64.6188 59° Northeast 502 578 35,000  Level FlightAware ADS-B (CYQI)
06:57PM 44.2592 -64.5353 59° Northeast 502 578 35,000  Level FlightAware ADS-B (CYQI)
06:58PM 44.3234 -64.3857 59° Northeast 500 575 35,000  Level FlightAware ADS-B (CYQI)
06:58PM 44.3706 -64.2754 59° Northeast 500 575 35,000  Level FlightAware ADS-B (CYQI)
06:59PM 44.4031 -64.1991 59° Northeast 500 575 35,000  Level FlightAware ADS-B (CYQI)
06:59PM 44.4449 -64.1011 59° Northeast 502 578 35,000  Level FlightAware ADS-B (CYQI)
07:00PM 44.4925 -63.9887 59° Northeast 504 580 35,000  Level FlightAware ADS-B (CYQI)
07:01PM 44.5380 -63.8809 60° Northeast 507 583 35,000  Level FlightAware ADS-B (CYQI)
07:01PM 44.5741 -63.7951 60° Northeast 511 588 35,000  Level FlightAware ADS-B (CYQI)
07:02PM 44.6103 -63.7091 59° Northeast 513 590 35,000  Level FlightAware ADS-B (CYQI)
07:02PM 44.6481 -63.6187 60° Northeast 513 590 35,000  Level FlightAware ADS-B (CYQI)
07:03PM 44.6822 -63.5368 60° Northeast 513 590 35,000  Level FlightAware ADS-B (CYQI)
07:03PM 44.7432 -63.3896 60° Northeast 511 588 35,000  Level FlightAware ADS-B (CYQI)
07:04PM 44.7866 -63.2847 60° Northeast 511 588 35,000  Level FlightAware ADS-B (CYQI)
07:05PM 44.8370 -63.1620 60° Northeast 511 588 35,000  Level FlightAware ADS-B (CYQI)
07:05PM 44.8786 -63.0605 60° Northeast 512 589 35,000  Level FlightAware ADS-B (CYQI)
07:06PM 44.9216 -62.9552 60° Northeast 510 587 35,000  Level FlightAware ADS-B (CYQI)
07:07PM 44.9633 -62.8528 60° Northeast 508 585 35,000  Level FlightAware ADS-B (CYQI)
07:07PM 44.9983 -62.7666 60° Northeast 507 583 35,000  Level FlightAware ADS-B (CYQI)
07:08PM 45.0333 -62.6500 60° Northeast 510 587 35,000  Level Gander Center
07:08PM 45.0667 -62.5500 65° Northeast 500 575 35,000  Level Moncton Center
07:09PM 45.1333 -62.3833 60° Northeast 510 587 35,000  Level Moncton Center
07:10PM 45.2000 -62.1833 65° Northeast 510 587 35,000  Level Moncton Center
07:11PM 45.2833 -62.0167 55° Northeast 510 587 35,000  Level Moncton Center
07:12PM 45.3500 -61.8500 60° Northeast 510 587 35,000  Level Moncton Center
07:13PM 45.4000 -61.6500 70° East 510 587 35,000  Level Moncton Center
07:14PM 45.4667 -61.4833 60° Northeast 510 587 35,000  Level Moncton Center
07:15PM 45.5500 -61.3167 54° Northeast 500 575 35,000  Level Moncton Center
07:16PM 45.6167 -61.1500 60° Northeast 510 587 35,000  Level Moncton Center
07:17PM 45.6667 -60.9667 69° East 510 587 35,000  Level Moncton Center
07:18PM 45.7500 -60.7833 57° Northeast 510 587 35,000  Level Moncton Center
07:19PM 45.8167 -60.6000 62° Northeast 510 587 35,000  Level Moncton Center
07:20PM 45.8833 -60.4333 60° Northeast 510 587 35,000  Level Moncton Center
07:21PM 45.9500 -60.2500 62° Northeast 500 575 35,000  Level Moncton Center
07:22PM 46.0167 -60.0833 60° Northeast 500 575 35,000 -60 Level Moncton Center
07:23PM 46.0667 -59.9167 67° East 500 575 34,900  Descending Moncton Center
07:24PM 46.1500 -59.7167 59° Northeast 510 587 35,100  Climbing Moncton Center
07:25PM 46.2000 -59.5333 68° East 510 587 35,000 -60 Descending Moncton Center
07:26PM 46.2833 -59.3333 59° Northeast 520 598 35,000  Level Moncton Center
07:27PM 46.3333 -59.1667 66° East 510 587 35,100  Climbing Moncton Center
07:28PM 46.3667 -59.0833 60° Northeast 500 575 35,000 -120 Descending Gander Center
07:28PM 46.4167 -58.9833 54° Northeast 510 587 35,000  Level Moncton Center
07:29PM 46.4667 -58.8000 68° East 520 598 35,000  Level Moncton Center
07:30PM 46.5333 -58.6000 64° Northeast 520 598 35,000 60 Level Moncton Center
07:31PM 46.6000 -58.4333 60° Northeast 520 598 35,200 480 Climbing Moncton Center
07:32PM 46.6667 -58.2167 66° East 510 587 36,000 360 Climbing Moncton Center
07:33PM 46.7333 -58.0500 60° Northeast 510 587 36,000  Level Moncton Center
07:34PM 46.7833 -57.8667 68° East 510 587 36,000  Level Moncton Center
07:35PM 46.8500 -57.6833 62° Northeast 510 587 36,000  Level Moncton Center
07:36PM 46.9167 -57.4833 64° Northeast 510 587 36,000  Level Moncton Center
07:37PM 46.9833 -57.3000 62° Northeast 520 598 36,000  Level Moncton Center
07:38PM 47.0333 -57.1000 70° East 520 598 36,000  Level Moncton Center
07:39PM 47.1000 -56.9167 62° Northeast 520 598 36,000  Level Moncton Center
07:40PM 47.1167 -56.8167 76° East 520 598 36,000  Level Gander Center
07:41PM 47.1833 -56.6167 64° Northeast 520 598 36,000  Level Gander Center
07:41PM 47.2167 -56.5333 59° Northeast 510 587 36,000  Level Moncton Center
07:42PM 47.2833 -56.3500 62° Northeast 520 598 36,000  Level Moncton Center
07:43PM 47.3333 -56.1333 71° East 520 598 36,000  Level Moncton Center
07:44PM 47.3667 -56.0333 64° Northeast 530 610 36,000  Level Gander Center
07:44PM 47.4000 -55.9333 64° Northeast 520 598 36,000  Level Moncton Center
07:45PM 47.4500 -55.7167 71° East 520 598 36,000  Level Moncton Center
07:46PM 47.5000 -55.5333 68° East 520 598 36,000  Level Moncton Center
07:47PM 47.5667 -55.3500 62° Northeast 520 598 36,000  Level Moncton Center
07:48PM 47.6333 -55.1667 62° Northeast 510 587 36,000  Level Moncton Center
07:49PM 47.6833 -54.9667 70° East 510 587 36,000  Level Moncton Center
07:50PM 47.7167 -54.8667 64° Northeast 510 587 36,000  Level Gander Center
07:51PM 47.7667 -54.6667 70° East 510 587 36,000  Level Gander Center
07:51PM 47.8000 -54.5667 64° Northeast 510 587 36,000 120 Level Moncton Center
07:52PM 47.8500 -54.3833 68° East 510 587 36,200 240 Climbing Moncton Center
07:53PM 47.8833 -54.2833 64° Northeast 520 598 36,400 360 Climbing Gander Center
07:54PM 47.9333 -54.0667 71° East 520 598 36,800 300 Climbing Gander Center
07:55PM 47.9833 -53.8667 69° East 520 598 37,000 60 Climbing Gander Center
07:56PM 48.0333 -53.6833 68° East 520 598 37,000  Level Gander Center
07:57PM 48.1000 -53.5000 61° Northeast 520 598 37,000  Level Gander Center
07:58PM 48.1500 -53.2833 71° East 510 587 37,000  Level Gander Center
07:59PM 48.2000 -53.0667 71° East 520 598 37,000  Level Gander Center
08:00PM 48.2500 -52.8833 68° East 520 598 37,000  Level Gander Center
08:00PM 48.2833 -52.7667 67° East 520 598 37,000  Level Moncton Center
08:01PM 48.3333 -52.5833 68° East 520 598 37,000  Level Moncton Center
08:02PM 48.3500 -52.4667 78° East 520 598 37,000  Level Gander Center
08:02PM 48.4000 -52.3667 53° Northeast 520 598 37,000  Level Moncton Center
08:03PM 48.4333 -52.1500 77° East 520 598 37,000  Level Moncton Center
08:04PM 48.4667 -52.0667 59° Northeast 520 598 37,000  Level Gander Center
08:05PM 48.5167 -51.8500 71° East 520 598 37,000  Level Gander Center
08:05PM 48.5500 -51.7500 63° Northeast 530 610 37,000  Level Moncton Center
08:06PM 48.5833 -51.5500 76° East 520 598 37,000  Level Moncton Center
08:07PM 48.6500 -51.3333 65° Northeast 530 610 37,000  Level Moncton Center
08:08PM 48.6667 -51.2333 76° East 530 610 37,000  Level Gander Center
08:09PM 48.7167 -51.0333 69° East 530 610 37,000  Level Gander Center
08:09PM 48.7500 -50.9167 67° East 520 598 37,000  Level Moncton Center
08:10PM 48.8000 -50.7000 71° East 530 610 37,000  Level Moncton Center
08:11PM 48.8167 -50.6167 73° East 530 610 37,000  Level Gander Center
08:11PM 48.8333 -50.5167 76° East 530 610 37,000  Level Moncton Center
08:12PM 48.9000 -50.2833 66° East 530 610 37,000  Level Moncton Center
08:13PM 48.9333 -50.1833 63° Northeast 530 610 37,000  Level Gander Center
08:14PM 48.9667 -50.0000 74° East 530 610 37,000  Level Gander Center
08:15PM 49.0000 -49.7667 78° East 520 598 37,000  Level Gander Center
08:16PM 49.0333 -49.5667 76° East 520 598 37,000  Level Gander Center
08:17PM 49.0667 -49.3333 78° East 520 598 37,000  Level Gander Center
08:18PM 49.1000 -49.1167 77° East 530 610 37,000  Level Gander Center
08:19PM 49.1333 -48.9000 77° East 520 598 37,000  Level Gander Center
08:20PM 49.1500 -48.7000 83° East 530 610 37,000  Level Gander Center
08:21PM 49.1833 -48.4833 77° East 530 610 37,000  Level Gander Center
08:22PM 49.2000 -48.2333 84° East 520 598 37,000  Level Gander Center
08:23PM 49.2333 -48.0333 76° East 520 598 37,000  Level Gander Center
08:24PM 49.2667 -47.8167 77° East 520 598 37,000  Level Gander Center
08:25PM 49.3000 -47.6000 77° East 530 610 37,000  Level Gander Center
08:26PM 49.3167 -47.3833 83° East 530 610 37,000  Level Gander Center
08:27PM 49.3500 -47.1333 78° East 530 610 37,000  Level Gander Center
08:28PM 49.3667 -46.9500 82° East 530 610 37,000  Level Gander Center
08:30PM 49.4170 -46.6101 77° East  Level FlightAware Approximate
08:37PM 49.5874 -45.2099 80° East  Level FlightAware Approximate
08:38PM 49.6079 -45.0084 81° East  Level FlightAware Approximate
08:39PM 49.6280 -44.8067 81° East  Level FlightAware Approximate
08:40PM 49.6477 -44.6049 81° East  Level FlightAware Approximate
08:41PM 49.6671 -44.4029 81° East  Level FlightAware Approximate
08:42PM 49.6862 -44.2007 82° East  Level FlightAware Approximate
08:43PM 49.7049 -43.9984 82° East  Level FlightAware Approximate
08:44PM 49.7233 -43.7960 82° East  Level FlightAware Approximate
08:45PM 49.7412 -43.5934 82° East  Level FlightAware Approximate
08:46PM 49.7589 -43.3906 82° East  Level FlightAware Approximate
08:47PM 49.7762 -43.1877 82° East  Level FlightAware Approximate
08:48PM 49.7931 -42.9846 83° East  Level FlightAware Approximate
08:49PM 49.8097 -42.7814 83° East  Level FlightAware Approximate
08:50PM 49.8259 -42.5781 83° East  Level FlightAware Approximate
08:51PM 49.8418 -42.3746 83° East  Level FlightAware Approximate
08:52PM 49.8573 -42.1711 83° East  Level FlightAware Approximate
08:53PM 49.8724 -41.9673 83° East  Level FlightAware Approximate
08:54PM 49.8872 -41.7635 83° East  Level FlightAware Approximate
08:55PM 49.9017 -41.5595 84° East  Level FlightAware Approximate
08:56PM 49.9158 -41.3554 84° East  Level FlightAware Approximate
08:57PM 49.9295 -41.1512 84° East  Level FlightAware Approximate
08:58PM 49.9428 -40.9468 84° East  Level FlightAware Approximate
08:59PM 49.9558 -40.7424 84° East  Level FlightAware Approximate
09:00PM 49.9685 -40.5379 84° East  Level FlightAware Approximate
09:01PM 49.9808 -40.3332 85° East  Level FlightAware Approximate
09:02PM 49.9927 -40.1289 85° East  Level FlightAware Approximate
09:03PM 50.0107 -39.9260 77° East  Level FlightAware Approximate
09:04PM 50.0396 -39.7257 77° East  Level FlightAware Approximate
09:05PM 50.0681 -39.5251 77° East  Level FlightAware Approximate
09:06PM 50.0963 -39.3243 78° East  Level FlightAware Approximate
09:07PM 50.1241 -39.1233 78° East  Level FlightAware Approximate
09:08PM 50.1516 -38.9220 78° East  Level FlightAware Approximate
09:09PM 50.1787 -38.7205 78° East  Level FlightAware Approximate
09:10PM 50.2055 -38.5187 78° East  Level FlightAware Approximate
09:11PM 50.2320 -38.3168 78° East  Level FlightAware Approximate
09:12PM 50.2580 -38.1146 79° East  Level FlightAware Approximate
09:13PM 50.2838 -37.9122 79° East  Level FlightAware Approximate
09:14PM 50.3092 -37.7096 79° East  Level FlightAware Approximate
09:15PM 50.3342 -37.5067 79° East  Level FlightAware Approximate
09:16PM 50.3589 -37.3037 79° East  Level FlightAware Approximate
09:17PM 50.3832 -37.1004 79° East  Level FlightAware Approximate
09:18PM 50.4072 -36.8969 79° East  Level FlightAware Approximate
09:19PM 50.4308 -36.6933 80° East  Level FlightAware Approximate
09:20PM 50.4540 -36.4894 80° East  Level FlightAware Approximate
09:21PM 50.4769 -36.2853 80° East  Level FlightAware Approximate
09:22PM 50.4995 -36.0811 80° East  Level FlightAware Approximate
09:23PM 50.5216 -35.8766 80° East  Level FlightAware Approximate
09:24PM 50.5435 -35.6719 80° East  Level FlightAware Approximate
09:25PM 50.5649 -35.4671 81° East  Level FlightAware Approximate
09:26PM 50.5860 -35.2621 81° East  Level FlightAware Approximate
09:27PM 50.6068 -35.0569 81° East  Level FlightAware Approximate
09:28PM 50.6272 -34.8515 81° East  Level FlightAware Approximate
09:29PM 50.6472 -34.6459 81° East  Level FlightAware Approximate
09:30PM 50.6669 -34.4402 81° East  Level FlightAware Approximate
09:31PM 50.6861 -34.2343 82° East  Level FlightAware Approximate
09:32PM 50.7051 -34.0282 82° East  Level FlightAware Approximate
09:33PM 50.7237 -33.8219 82° East  Level FlightAware Approximate
09:34PM 50.7419 -33.6155 82° East  Level FlightAware Approximate
09:35PM 50.7597 -33.4090 82° East  Level FlightAware Approximate
09:36PM 50.7772 -33.2023 82° East  Level FlightAware Approximate
09:37PM 50.7943 -32.9954 82° East  Level FlightAware Approximate
09:38PM 50.8111 -32.7884 83° East  Level FlightAware Approximate
09:39PM 50.8274 -32.5812 83° East  Level FlightAware Approximate
09:40PM 50.8434 -32.3739 83° East  Level FlightAware Approximate
09:41PM 50.8591 -32.1664 83° East  Level FlightAware Approximate
09:42PM 50.8744 -31.9588 83° East  Level FlightAware Approximate
09:43PM 50.8893 -31.7511 83° East  Level FlightAware Approximate
09:44PM 50.9038 -31.5432 84° East  Level FlightAware Approximate
09:45PM 50.9180 -31.3353 84° East  Level FlightAware Approximate
09:46PM 50.9318 -31.1266 84° East  Level FlightAware Approximate
09:47PM 50.9453 -30.9179 84° East  Level FlightAware Approximate
09:48PM 50.9584 -30.7090 84° East  Level FlightAware Approximate
09:49PM 50.9711 -30.5000 84° East  Level FlightAware Approximate
09:50PM 50.9835 -30.2910 85° East  Level FlightAware Approximate
09:51PM 50.9954 -30.0817 85° East  Level FlightAware Approximate
09:52PM 51.0181 -29.8752 77° East  Level FlightAware Approximate
09:53PM 51.0475 -29.6702 77° East  Level FlightAware Approximate
09:54PM 51.0765 -29.4649 77° East  Level FlightAware Approximate
09:55PM 51.1052 -29.2594 77° East  Level FlightAware Approximate
09:56PM 51.1335 -29.0536 78° East  Level FlightAware Approximate
09:57PM 51.1615 -28.8476 78° East  Level FlightAware Approximate
09:58PM 51.1890 -28.6413 78° East  Level FlightAware Approximate
09:59PM 51.2163 -28.4348 78° East  Level FlightAware Approximate
10:00PM 51.2431 -28.2281 78° East  Level FlightAware Approximate
10:01PM 51.2696 -28.0211 78° East  Level FlightAware Approximate
10:02PM 51.2958 -27.8138 79° East  Level FlightAware Approximate
10:03PM 51.3215 -27.6063 79° East  Level FlightAware Approximate
10:04PM 51.3469 -27.3986 79° East  Level FlightAware Approximate
10:05PM 51.3720 -27.1907 79° East  Level FlightAware Approximate
10:06PM 51.3966 -26.9826 79° East  Level FlightAware Approximate
10:07PM 51.4209 -26.7742 79° East  Level FlightAware Approximate
10:08PM 51.4448 -26.5656 79° East  Level FlightAware Approximate
10:09PM 51.4684 -26.3568 80° East  Level FlightAware Approximate
10:10PM 51.4916 -26.1477 80° East  Level FlightAware Approximate
10:11PM 51.5144 -25.9385 80° East  Level FlightAware Approximate
10:12PM 51.5368 -25.7290 80° East  Level FlightAware Approximate
10:13PM 51.5589 -25.5194 80° East  Level FlightAware Approximate
10:14PM 51.5806 -25.3095 80° East  Level FlightAware Approximate
10:15PM 51.6019 -25.0995 81° East  Level FlightAware Approximate
10:16PM 51.6228 -24.8892 81° East  Level FlightAware Approximate
10:17PM 51.6434 -24.6788 81° East  Level FlightAware Approximate
10:18PM 51.6636 -24.4681 81° East  Level FlightAware Approximate
10:19PM 51.6834 -24.2573 81° East  Level FlightAware Approximate
10:20PM 51.7028 -24.0463 81° East  Level FlightAware Approximate
10:21PM 51.7219 -23.8351 82° East  Level FlightAware Approximate
10:22PM 51.7406 -23.6238 82° East  Level FlightAware Approximate
10:23PM 51.7589 -23.4122 82° East  Level FlightAware Approximate
10:24PM 51.7768 -23.2005 82° East  Level FlightAware Approximate
10:25PM 51.7943 -22.9887 82° East  Level FlightAware Approximate
10:26PM 51.8115 -22.7766 82° East  Level FlightAware Approximate
10:27PM 51.8283 -22.5644 83° East  Level FlightAware Approximate
10:28PM 51.8447 -22.3521 83° East  Level FlightAware Approximate
10:29PM 51.8607 -22.1396 83° East  Level FlightAware Approximate
10:30PM 51.8763 -21.9270 83° East  Level FlightAware Approximate
10:31PM 51.8915 -21.7142 83° East  Level FlightAware Approximate
10:32PM 51.9064 -21.5012 83° East  Level FlightAware Approximate
10:33PM 51.9209 -21.2882 84° East  Level FlightAware Approximate
10:34PM 51.9350 -21.0749 84° East  Level FlightAware Approximate
10:35PM 51.9487 -20.8616 84° East  Level FlightAware Approximate
10:36PM 51.9620 -20.6481 84° East  Level FlightAware Approximate
10:37PM 51.9749 -20.4345 84° East  Level FlightAware Approximate
10:38PM 51.9874 -20.2208 84° East  Level FlightAware Approximate
10:39PM 51.9996 -20.0070 85° East  Level FlightAware Approximate
10:40PM 52.0226 -19.7954 80° East  Level FlightAware Approximate
10:41PM 52.0455 -19.5837 80° East  Level FlightAware Approximate
10:42PM 52.0681 -19.3718 80° East  Level FlightAware Approximate
10:43PM 52.0902 -19.1597 80° East  Level FlightAware Approximate
10:44PM 52.1120 -18.9474 80° East  Level FlightAware Approximate
10:45PM 52.1335 -18.7349 81° East  Level FlightAware Approximate
10:46PM 52.1545 -18.5222 81° East  Level FlightAware Approximate
10:47PM 52.1752 -18.3092 81° East  Level FlightAware Approximate
10:48PM 52.1954 -18.0961 81° East  Level FlightAware Approximate
10:49PM 52.2153 -17.8828 81° East  Level FlightAware Approximate
10:50PM 52.2348 -17.6693 81° East  Level FlightAware Approximate
10:51PM 52.2540 -17.4556 82° East  Level FlightAware Approximate
10:52PM 52.2732 -17.2418 82° East  Level FlightAware Approximate
10:53PM 52.2920 -17.0279 82° East  Level FlightAware Approximate
10:54PM 52.3103 -16.8138 82° East  Level FlightAware Approximate
10:55PM 52.3283 -16.5994 82° East  Level FlightAware Approximate
10:56PM 52.3460 -16.3850 82° East  Level FlightAware Approximate
10:57PM 52.3632 -16.1703 82° East  Level FlightAware Approximate
10:58PM 52.3800 -15.9555 83° East  Level FlightAware Approximate
10:59PM 52.3964 -15.7405 83° East  Level FlightAware Approximate
11:00PM 52.4125 -15.5254 83° East  Level FlightAware Approximate
11:01PM 52.4282 -15.3101 83° East  Level FlightAware Approximate
11:02PM 52.4434 -15.0946 83° East  Level FlightAware Approximate
11:03PM 52.4585 -14.8791 83° East  Level FlightAware Approximate
11:04PM 52.4734 -14.6634 83° East  Level FlightAware Approximate
11:05PM 52.4880 -14.4476 84° East  Level FlightAware Approximate
11:06PM 52.5024 -14.2317 84° East  Level FlightAware Approximate
11:07PM 52.5165 -14.0157 84° East  Level FlightAware Approximate
11:08PM 52.5301 -13.7995 84° East  Level FlightAware Approximate
11:08PM 52.3343 -11.8069 82° East 469 540 37,000  Level FlightAware ADS-B (EICK / ORK)
11:09PM 52.5434 -13.5832 84° East  Level FlightAware Approximate
11:10PM 52.5562 -13.3668 84° East  Level FlightAware Approximate
11:10PM 52.3655 -11.4550 82° East 470 541 37,000  Level FlightAware ADS-B (EICK / ORK)
11:10PM 52.3753 -11.3425 82° East 469 540 37,000  Level FlightAware ADS-B (EICK / ORK)
11:11PM 52.3874 -11.2004 82° East 466 536 37,000  Level FlightAware ADS-B (EICK / ORK)
11:11PM 52.3970 -11.0883 82° East 466 536 37,000  Level FlightAware ADS-B (EICK / ORK)
11:12PM 52.4077 -10.9602 82° East 467 537 37,000  Level FlightAware ADS-B (EICK / ORK)
11:13PM 52.4193 -10.8201 83° East 466 536 37,000  Level FlightAware ADS-B (EICK / ORK)
11:13PM 52.4273 -10.7207 83° East 465 535 37,000  Level FlightAware ADS-B (EICK / ORK)
11:14PM 52.4362 -10.6104 83° East 464 534 37,000  Level FlightAware ADS-B (EICK / ORK)
11:14PM 52.4472 -10.4717 83° East 467 537 37,000  Level FlightAware ADS-B (EICK / ORK)
11:15PM 52.4580 -10.3337 83° East 469 540 37,000  Level FlightAware ADS-B (EICK / ORK)
11:16PM 52.4667 -10.2206 83° East 470 541 37,000  Level FlightAware ADS-B (EICK / ORK)
11:16PM 52.4751 -10.1095 83° East 472 543 37,000  Level FlightAware ADS-B (EICK / ORK)
11:17PM 52.4833 -9.9999 83° East 474 545 37,000  Level FlightAware ADS-B (EICK / ORK)
11:17PM 52.4915 -9.8914 83° East 474 545 37,000  Level FlightAware ADS-B (EICK / ORK)
11:18PM 52.4997 -9.7782 83° East 473 544 37,000  Level FlightAware ADS-B (EICK / ORK)
11:18PM 52.5065 -9.6843 83° East 473 544 37,000  Level FlightAware ADS-B (EICK / ORK)
11:19PM 52.5152 -9.5608 83° East 472 543 37,000  Level FlightAware ADS-B (EICK / ORK)
11:19PM 52.5229 -9.4518 84° East 473 544 37,000  Level FlightAware ADS-B (EICK / ORK)
11:20PM 52.5309 -9.3359 84° East 473 544 37,000  Level FlightAware ADS-B (EICK / ORK)
11:20PM 52.5383 -9.2280 84° East 470 541 37,000  Level FlightAware ADS-B (EICK / ORK)
11:21PM 52.5493 -9.0642 84° East 472 543 37,000  Level FlightAware ADS-B (EICK / ORK)
11:21PM 52.5560 -8.9629 84° East 473 544 37,000  Level FlightAware ADS-B (EGAA / BFS)
11:22PM 52.5655 -8.8179 84° East 472 543 37,000  Level FlightAware ADS-B (EGAA / BFS)
11:23PM 52.5742 -8.6809 84° East 471 542 37,000  Level FlightAware ADS-B (EICK / ORK)
11:23PM 52.5808 -8.5768 84° East 469 540 37,000  Level FlightAware ADS-B (EICK / ORK)
11:24PM 52.5881 -8.4591 84° East 466 536 37,000  Level FlightAware ADS-B (EGAA / BFS)
11:24PM 52.5953 -8.3394 84° East 468 539 37,000  Level FlightAware UK
11:24PM 52.5951 -8.3427 84° East 467 537 37,000  Level FlightAware ADS-B (EICK / ORK)
11:25PM 52.6016 -8.2338 84° East 470 541 37,000  Level FlightAware UK
11:25PM 52.6017 -8.2340 85° East 469 540 37,000  Level FlightAware ADS-B (EICK / ORK)
11:25PM 52.6095 -8.1007 85° East 472 543 37,000  Level FlightAware ADS-B (EGAA / BFS)
11:26PM 52.6159 -7.9900 85° East 473 544 37,000  Level FlightAware ADS-B (EGAA / BFS)
11:27PM 52.6224 -7.8753 85° East 472 543 37,000  Level FlightAware ADS-B (EGAA / BFS)
11:27PM 52.6288 -7.7605 85° East 471 542 37,000  Level FlightAware ADS-B (EICK / ORK)
11:28PM 52.6359 -7.6311 85° East 472 543 37,000  Level FlightAware ADS-B (EGAA / BFS)
11:28PM 52.6439 -7.4840 85° East 472 543 37,000  Level FlightAware UK
11:28PM 52.6437 -7.4855 85° East 471 542 37,000  Level FlightAware ADS-B (EGAA / BFS)
11:29PM 52.6506 -7.3544 85° East 469 540 37,000  Level FlightAware ADS-B (EGAA / BFS)
11:30PM 52.6578 -7.2137 85° East 469 540 37,000  Level FlightAware ADS-B (EGAA / BFS)
11:30PM 52.6648 -7.0727 86° East 470 541 37,000  Level FlightAware ADS-B (EGAA / BFS)
11:31PM 52.6710 -6.9502 86° East 472 543 37,000  Level FlightAware UK
11:31PM 52.6707 -6.9504 86° East 472 543 37,000  Level FlightAware ADS-B (EGAA / BFS)
11:32PM 52.6784 -6.7903 86° East 473 544 37,000  Level FlightAware ADS-B (EGAA / BFS)
11:32PM 52.6836 -6.6781 86° East 472 543 37,000  Level FlightAware ADS-B (EGAA / BFS)
11:33PM 52.6885 -6.5720 86° East 472 543 37,000  Level FlightAware ADS-B (EGAA / BFS)
11:33PM 52.6957 -6.4117 86° East 474 545 37,000  Level FlightAware UK
11:34PM 52.7004 -6.3040 86° East 474 545 37,000  Level FlightAware UK
11:34PM 52.7027 -6.2469 86° East 473 544 37,000  Level FlightAware ADS-B (EGAA / BFS)
11:35PM 52.7085 -6.1059 86° East 473 544 37,000  Level FlightAware ADS-B (EGOD)
11:35PM 52.7132 -5.9919 86° East 472 543 37,000  Level FlightAware ADS-B (EGAA / BFS)
11:36PM 52.7172 -5.8917 86° East 472 543 37,000  Level FlightAware ADS-B (EGOD)
11:36PM 52.7221 -5.7627 86° East 472 543 37,000  Level FlightAware ADS-B (EGAA / BFS)
11:37PM 52.7265 -5.6495 88° East 471 542 37,000  Level FlightAware ADS-B (EGPK / PIK)
11:37PM 52.7308 -5.5316 87° East 474 545 37,000  Level FlightAware ADS-B (EGAA / BFS)
11:38PM 52.7344 -5.4308 87° East 475 547 37,000  Level FlightAware ADS-B (EGOD)
11:39PM 52.7390 -5.2972 88° East 474 545 37,000  Level FlightAware ADS-B (EGPK / PIK)
11:39PM 52.7415 -5.2230 88° East 474 545 37,000  Level FlightAware ADS-B (EGPK / PIK)
11:39PM 52.7450 -5.1182 87° East 475 547 37,000  Level FlightAware ADS-B (EGBS)
11:40PM 52.7460 -5.0888 88° East 474 545 37,000  Level FlightAware ADS-B (EGPK / PIK)
11:40PM 52.7483 -5.0146 88° East 473 544 37,000  Level FlightAware ADS-B (EGPK / PIK)
11:40PM 52.7510 -4.9316 88° East 472 543 37,000  Level FlightAware ADS-B (EGPK / PIK)
11:40PM 52.7525 -4.8833 88° East 470 541 37,000  Level FlightAware ADS-B (EGPK / PIK)
11:41PM 52.7537 -4.8463 88° East 470 541 37,000  Level FlightAware ADS-B
11:41PM 52.7573 -4.7240 87° East 472 543 37,000  Level FlightAware ADS-B (EGBS)
11:42PM 52.7601 -4.6259 87° East 474 545 37,000  Level FlightAware ADS-B
11:42PM 52.7603 -4.6180 87° East 474 545 37,000  Level FlightAware ADS-B (EGBS)
11:42PM 52.7631 -4.5177 87° East 472 543 37,000  Level FlightAware ADS-B
11:42PM 52.7634 -4.5087 88° East 473 544 37,000  Level FlightAware ADS-B (EGBS)
11:43PM 52.7666 -4.3890 88° East 472 543 37,000  Level FlightAware ADS-B (EGOD)
11:43PM 52.7672 -4.3704 88° East 472 543 37,000  Level FlightAware ADS-B
11:43PM 52.7697 -4.2748 88° East 471 542 37,000  Level FlightAware ADS-B (EGHO)
11:43PM 52.7700 -4.2608 88° East 471 542 37,000  Level FlightAware ADS-B
11:44PM 52.7719 -4.1843 88° East 473 544 37,000  Level FlightAware ADS-B (EGOD)
11:44PM 52.7730 -4.1412 88° East 473 544 37,000  Level FlightAware ADS-B
11:44PM 52.7751 -4.0556 88° East 474 545 37,000  Level FlightAware ADS-B (EGBS)
11:44PM 52.7759 -4.0229 88° East 475 547 37,000  Level FlightAware ADS-B
11:45PM 52.7778 -3.9408 88° East 476 548 37,000  Level FlightAware ADS-B (EGXU / HRT)
11:45PM 52.7785 -3.9059 88° East 476 548 37,000  Level FlightAware ADS-B
11:45PM 52.7802 -3.8285 88° East 476 548 37,000  Level FlightAware ADS-B (EGXU / HRT)
11:46PM 52.7810 -3.7946 88° East 476 548 37,000  Level FlightAware ADS-B
11:46PM 52.7812 -3.7782 90° East 476 548 37,000  Level FlightAware ADS-B (EGHO)
11:46PM 52.7813 -3.6816 91° East 473 544 37,000  Level FlightAware ADS-B
11:46PM 52.7812 -3.6651 91° East 472 543 37,000  Level FlightAware ADS-B (EGLF / FAB)
11:47PM 52.7806 -3.5736 91° East 471 542 37,000  Level FlightAware ADS-B
11:47PM 52.7803 -3.5345 91° East 470 541 37,000  Level FlightAware ADS-B (EGHO)
11:47PM 52.7800 -3.4647 90° East 469 540 37,000  Level FlightAware ADS-B
11:47PM 52.7799 -3.4196 90° East 469 540 37,000  Level FlightAware ADS-B (EGNA)
11:48PM 52.7796 -3.3566 90° East 470 541 37,000  Level FlightAware ADS-B
11:48PM 52.7795 -3.3061 90° East 471 542 37,000  Level FlightAware ADS-B (EGNR / CEG)
11:48PM 52.7792 -3.2486 90° East 471 542 37,000  Level FlightAware ADS-B
11:48PM 52.7789 -3.1901 90° East 471 542 37,000  Level FlightAware ADS-B (EGLF / FAB)
11:49PM 52.7787 -3.1369 90° East 470 541 37,000  Level FlightAware ADS-B
11:49PM 52.7784 -3.0835 91° East 468 539 37,000  Level FlightAware ADS-B (EGLF / FAB)
11:49PM 52.7780 -3.0275 91° East 467 537 37,000  Level FlightAware ADS-B
11:49PM 52.7780 -3.0146 90° East 615 708 37,000  Level FlightAware ADS-B (EGKA / ESH)
11:49PM 52.7778 -2.9876 91° East 466 536 37,000  Level FlightAware ADS-B (EGHO)
11:50PM 52.7773 -2.9250 91° East 465 535 37,000  Level FlightAware ADS-B
11:50PM 52.7769 -2.8826 91° East 465 535 37,000  Level FlightAware ADS-B (EGDX / DGX)
11:50PM 52.7764 -2.8115 91° East 464 534 37,000  Level FlightAware ADS-B
11:50PM 52.7760 -2.7678 91° East 464 534 37,000  Level FlightAware ADS-B (EGCC / MAN)
11:50PM 52.7757 -2.7376 90° East 464 534 37,000  Level FlightAware ADS-B (EGHO)
11:51PM 52.7753 -2.6924 91° East 463 533 37,000  Level FlightAware ADS-B
11:51PM 52.7752 -2.6833 90° East 463 533 37,000  Level FlightAware ADS-B (EGBJ / GLO)
11:51PM 52.7748 -2.6429 90° East 462 532 37,000  Level FlightAware ADS-B (EGNR / CEG)
11:51PM 52.7746 -2.6256 90° East 462 532 37,000  Level FlightAware ADS-B
11:51PM 52.7745 -2.6068 90° East 463 533 37,000  Level FlightAware ADS-B
11:51PM 52.7743 -2.5850 91° East 463 533 37,000  Level FlightAware ADS-B
11:51PM 52.7739 -2.5532 91° East 462 532 37,000  Level FlightAware ADS-B (EGLF / FAB)
11:51PM 52.7738 -2.5410 90° East 462 532 37,000  Level FlightAware ADS-B (EGBJ / GLO)
11:52PM 52.7734 -2.5053 90° East 462 532 37,000  Level FlightAware ADS-B (EGNR / CEG)
11:52PM 52.7731 -2.4789 91° East 462 532 37,000  Level FlightAware ADS-B
11:52PM 52.7729 -2.4632 90° East 462 532 37,000  Level FlightAware ADS-B (EGBJ / GLO)
11:52PM 52.7725 -2.4298 90° East 462 532 37,000  Level FlightAware ADS-B (EGHO)
11:52PM 52.7721 -2.3921 90° East 461 531 37,000  Level FlightAware ADS-B (EGBJ / GLO)
11:52PM 52.7719 -2.3727 91° East 461 531 37,000  Level FlightAware ADS-B
11:52PM 52.7717 -2.3611 91° East 461 531 37,000  Level FlightAware ADS-B (EGBS)
11:52PM 52.7715 -2.3469 90° East 461 531 37,000  Level FlightAware ADS-B (EGHO)
11:53PM 52.7710 -2.2985 90° East 462 532 37,000  Level FlightAware ADS-B (EGNR / CEG)
11:53PM 52.7706 -2.2668 91° East 463 533 37,000  Level FlightAware ADS-B
11:53PM 52.7704 -2.2477 90° East 463 533 37,000  Level FlightAware ADS-B (EGBJ / GLO)
11:53PM 52.7700 -2.2243 90° East 464 534 37,000  Level FlightAware ADS-B (EGNR / CEG)
11:53PM 52.7692 -2.1603 91° East 465 535 37,000  Level FlightAware ADS-B
11:53PM 52.7693 -2.1699 91° East 465 535 37,000  Level FlightAware ADS-B (EGKA / ESH)
11:53PM 52.7689 -2.1367 90° East 465 535 37,000  Level FlightAware ADS-B
11:53PM 52.7685 -2.1120 90° East 465 535 37,000  Level FlightAware ADS-B (EGHO)
11:54PM 52.7676 -2.0525 91° East 466 536 37,000  Level FlightAware ADS-B
11:54PM 52.7674 -2.0376 91° East 466 536 37,000  Level FlightAware ADS-B (EGKA / ESH)
11:54PM 52.7671 -2.0174 90° East 467 537 37,000  Level FlightAware ADS-B (EGHO)
11:54PM 52.7660 -1.9450 91° East 467 537 37,000  Level FlightAware ADS-B
11:54PM 52.7654 -1.9047 91° East 468 539 37,000  Level FlightAware ADS-B (EGBS)
11:55PM 52.7649 -1.8775 91° East 468 539 37,000  Level FlightAware ADS-B
11:55PM 52.7644 -1.8375 91° East 468 539 37,000  Level FlightAware ADS-B
11:55PM 52.7642 -1.8301 91° East 469 540 37,000  Level FlightAware ADS-B (EGNR / CEG)
11:55PM 52.7636 -1.7896 92° East 469 540 37,000  Level FlightAware ADS-B (EGCC / MAN)
11:55PM 52.7627 -1.7390 91° East 469 540 37,000  Level FlightAware ADS-B (EGHO)
11:55PM 52.7625 -1.7290 91° East 470 541 37,000  Level FlightAware ADS-B
11:56PM 52.7614 -1.6619 91° East 470 541 37,000  Level FlightAware ADS-B (EGNR / CEG)
11:56PM 52.7607 -1.6214 92° East 471 542 37,000  Level FlightAware ADS-B
11:56PM 52.7606 -1.6185 91° East 471 542 37,000  Level FlightAware ADS-B (EGHO)
11:56PM 52.7585 -1.5138 92° East 470 541 37,000  Level FlightAware ADS-B
11:56PM 52.7583 -1.5004 92° East 470 541 37,000  Level FlightAware ADS-B (EGBS)
11:57PM 52.7564 -1.4062 92° East 469 540 37,000  Level FlightAware ADS-B
11:57PM 52.7563 -1.3984 92° East 469 540 37,000  Level FlightAware ADS-B (EGBS)
11:57PM 52.7542 -1.2965 92° East 468 539 37,000  Level FlightAware ADS-B
11:57PM 52.7544 -1.3068 92° East 468 539 37,000  Level FlightAware ADS-B (EGKA / ESH)
11:58PM 52.7519 -1.1920 92° East 467 537 37,000  Level FlightAware ADS-B
11:58PM 52.7514 -1.1686 92° East 466 536 37,000  Level FlightAware ADS-B (EGDM)
11:58PM 52.7494 -1.0805 92° East 467 537 37,000  Level FlightAware ADS-B
11:58PM 52.7486 -1.0471 92° East 468 539 37,000  Level FlightAware ADS-B (EGNR / CEG)
11:59PM 52.7468 -0.9719 92° East 468 539 37,000  Level FlightAware ADS-B
11:59PM 52.7462 -0.9444 92° East 468 539 37,000  Level FlightAware ADS-B
11:59PM 52.7442 -0.8645 92° East 467 537 37,000  Level FlightAware ADS-B
11:59PM 52.7433 -0.8273 92° East 466 536 37,000  Level FlightAware ADS-B (EGXY)
12:00AM 52.7415 -0.7582 92° East 465 535 37,000  Level FlightAware ADS-B
12:00AM 52.7404 -0.7160 93° East 464 534 37,000  Level FlightAware ADS-B (EGNR / CEG)
12:00AM 52.7387 -0.6504 92° East 464 534 37,000  Level FlightAware ADS-B
12:01AM 52.7370 -0.5878 92° East 464 534 37,000  Level FlightAware ADS-B (EGNA)
12:01AM 52.7359 -0.5436 92° East 463 533 37,000  Level FlightAware ADS-B
12:01AM 52.7338 -0.4690 93° East 464 534 37,000  Level FlightAware ADS-B (EGNR / CEG)
12:01AM 52.7329 -0.4372 93° East 464 534 37,000  Level FlightAware ADS-B
12:02AM 52.7304 -0.3513 93° East 462 532 37,000  Level FlightAware ADS-B (EGLF / FAB)
12:02AM 52.7298 -0.3311 93° East 462 532 37,000  Level FlightAware ADS-B
12:02AM 52.7273 -0.2468 93° East 461 531 37,000  Level FlightAware ADS-B (EGLF / FAB)
12:02AM 52.7265 -0.2205 93° East 461 531 37,000  Level FlightAware ADS-B
12:03AM 52.7242 -0.1426 93° East 460 529 37,000  Level FlightAware ADS-B (EGLF / FAB)
12:03AM 52.7233 -0.1120 93° East 460 529 37,000  Level FlightAware ADS-B
12:03AM 52.7231 -0.1067 93° East 460 529 37,000  Level FlightAware ADS-B (EGLF / FAB)
12:03AM 52.7228 -0.0965 92° East 459 528 37,000  Level FlightAware ADS-B (EGHO)
12:03AM 52.7208 -0.0340 92° East 460 529 37,000  Level FlightAware ADS-B
12:03AM 52.7199 -0.0048 93° East 460 529 37,000  Level FlightAware ADS-B
12:03AM 52.7187 0.0314 92° East 459 528 37,000  Level FlightAware ADS-B (EGHO)
12:04AM 52.7181 0.0507 92° East 459 528 37,000  Level FlightAware ADS-B (EGXP / SQZ)
12:04AM 52.7174 0.0715 92° East 459 528 37,000  Level FlightAware ADS-B (EGHO)
12:04AM 52.7165 0.1012 92° East 459 528 37,000  Level FlightAware ADS-B
12:04AM 52.7162 0.1253 91° East 460 529 37,000  Level FlightAware ADS-B (EGNR / CEG)
12:04AM 52.7162 0.1579 89° East 460 529 37,000  Level FlightAware ADS-B
12:04AM 52.7169 0.2035 88° East 461 531 37,000  Level FlightAware ADS-B (EGLF / FAB)
12:05AM 52.7179 0.2645 88° East 461 531 37,000  Level FlightAware ADS-B
12:05AM 52.7185 0.2957 89° East 460 529 37,000  Level FlightAware ADS-B (EGHO)
12:05AM 52.7192 0.3353 89° East 460 529 37,000  Level FlightAware ADS-B (EGHO)
12:05AM 52.7200 0.3784 89° East 460 529 37,000  Level FlightAware ADS-B (EGHO)
12:05AM 52.7208 0.4213 89° East 460 529 37,000  Level FlightAware ADS-B (EGHO)
12:05AM 52.7211 0.4356 88° East 460 529 37,000  Level FlightAware ADS-B
12:06AM 52.7216 0.4683 88° East 460 529 37,000  Level FlightAware ADS-B
12:06AM 52.7221 0.4985 89° East 459 528 37,000  Level FlightAware ADS-B (EGHO)
12:06AM 52.7232 0.5555 89° East 459 528 37,000  Level FlightAware ADS-B
12:06AM 52.7240 0.6072 88° East 458 527 37,000  Level FlightAware ADS-B
12:07AM 52.7250 0.6628 88° East 458 527 37,000  Level FlightAware ADS-B
12:07AM 52.7252 0.6734 90° East 458 527 37,000  Level FlightAware ADS-B (EGNR / CEG)
12:07AM 52.7256 0.6973 90° East 458 527 37,000  Level FlightAware ADS-B (EGHO)
12:07AM 52.7262 0.7358 89° East 457 526 37,000 -600 Level FlightAware ADS-B (EGHO)
12:07AM 52.7269 0.7690 88° East 457 526 36,800 -1,440 Descending FlightAware ADS-B
12:07AM 52.7271 0.7815 89° East 457 526 36,700 -1,680 Descending FlightAware ADS-B (EGHO)
12:07AM 52.7275 0.8091 90° East 458 527 36,500 -1,560 Descending FlightAware ADS-B (EGNR / CEG)
12:08AM 52.7283 0.8743 89° East 458 527 36,000 -1,860 Descending FlightAware ADS-B
12:08AM 52.7286 0.9689 90° East 463 533 35,100 -1,980 Descending FlightAware ADS-B (EGSR)
12:08AM 52.7287 0.9849 89° East 462 532 35,000 -1,500 Descending FlightAware ADS-B
12:08AM 52.7290 1.0117 90° East 460 529 34,800 -1,440 Descending FlightAware ADS-B
12:08AM 52.7294 1.0443 90° East 459 528 34,600 -1,620 Descending FlightAware ADS-B (EGHO)
12:09AM 52.7299 1.0915 89° East 462 532 34,200 -1,920 Descending FlightAware ADS-B
12:09AM 52.7301 1.1078 89° East 464 534 33,900 -1,800 Descending FlightAware ADS-B (EGLC / LCY)
12:09AM 52.7308 1.1625 90° East 460 529 33,600 -1,380 Descending FlightAware ADS-B (EGHO)
12:09AM 52.7311 1.1970 89° East 455 524 33,400 -1,440 Descending FlightAware ADS-B
12:09AM 52.7311 1.2060 89° East 455 524 33,300 -1,620 Descending FlightAware ADS-B
12:10AM 52.7319 1.3013 89° East 460 529 32,600 -1,620 Descending FlightAware ADS-B
12:10AM 52.7322 1.3269 89° East 460 529 32,400 -1,500 Descending FlightAware ADS-B (EGLF / FAB)
12:10AM 52.7325 1.3412 89° East 459 528 32,300 -2,400 Descending FlightAware ADS-B (EGKA / ESH)
12:10AM 52.7336 1.4069 88° East 458 527 31,500 -2,400 Descending FlightAware ADS-B
12:10AM 52.7336 1.4108 88° East 457 526 31,500 -1,560 Level FlightAware ADS-B
12:11AM 52.7357 1.5115 88° East 448 516 30,700 -1,620 Descending FlightAware ADS-B
12:11AM 52.7358 1.5151 88° East 448 516 30,700 -1,500 Level FlightAware ADS-B (EGLC / LCY)
12:11AM 52.7367 1.5687 90° East 444 511 30,300 -1,380 Descending FlightAware ADS-B (EGHO)
12:11AM 52.7368 1.5772 90° East 444 511 30,300 -1,620 Level FlightAware ADS-B (KAUN)
12:11AM 52.7374 1.6190 89° East 443 510 29,900 -1,620 Descending FlightAware ADS-B
12:12AM 52.7388 1.6779 87° East 434 499 29,200 -1,440 Descending FlightAware ADS-B (EHRD / RTM)
12:12AM 52.7421 1.7733 87° East 425 489 28,800 -1,500 Descending FlightAware ADS-B
12:12AM 52.7438 1.8176 87° East 421 484 28,400 -1,500 Descending FlightAware ADS-B (EGLC / LCY)
12:12AM 52.7467 1.8913 86° East 411 473 27,900 -1,500 Descending FlightAware ADS-B
12:13AM 52.7473 1.9205 89° East 406 467 27,600 -1,620 Descending FlightAware ADS-B
12:13AM 52.7464 1.9469 96° East 397 457 27,400 -1,200 Descending FlightAware ADS-B (EGXP / SQZ)
12:13AM 52.7459 1.9544 97° East 397 457 27,400 -1,500 Level FlightAware ADS-B
12:13AM 52.7417 1.9935 99° East 390 449 27,000 -1,500 Descending FlightAware ADS-B (EGNR / CEG)
12:14AM 52.7311 2.0946 99° East 380 437 26,200 -1,500 Descending FlightAware ADS-B (EHRD / RTM)
12:14AM 52.7271 2.1336 86° East 412 474 25,800 -1,620 Descending FlightAware ADS-B (KAUN)
12:14AM 52.7226 2.1787 100° East 375 432 25,400 -1,380 Descending FlightAware ADS-B (EGLF / FAB)
12:14AM 52.7172 2.2309 98° East 373 429 25,000 -1,500 Descending FlightAware ADS-B (KAUN)
12:15AM 52.7138 2.2641 98° East 371 427 24,700 -1,620 Descending FlightAware ADS-B (KAUN)
12:15AM 52.7052 2.3482 98° East 370 426 23,900 -1,560 Descending FlightAware UK
12:15AM 52.7052 2.3466 100° East 371 427 23,900 -1,500 Level FlightAware ADS-B (EGLF / FAB)
12:15AM 52.7003 2.3924 98° East 366 421 23,500 -1,500 Descending FlightAware ADS-B (KAUN)
12:16AM 52.6979 2.4152 100° East 371 427 22,700 -1,500 Descending FlightAware ADS-B (EGXP / SQZ)
12:17AM 52.6810 2.5752 100° East 365 420 21,900 -1,560 Descending FlightAware ADS-B (EGLF / FAB)
12:17AM 52.6757 2.6183 111° Southeast 359 413 21,300 -1,320 Descending FlightAware ADS-B (EGLF / FAB)
12:17AM 52.6525 2.7147 113° Southeast 355 409 20,700 -1,080 Descending FlightAware ADS-B
12:18AM 52.6329 2.7957 112° Southeast 355 409 20,200 -1,080 Descending FlightAware ADS-B
12:19AM 52.6108 2.8874 112° Southeast 352 405 19,500 -1,020 Descending FlightAware UK
12:19AM 52.6113 2.8847 112° Southeast 352 405 19,600 -1,620 Climbing FlightAware ADS-B
12:19AM 52.5925 2.9619 112° Southeast 354 407 18,700 -1,740 Descending FlightAware UK
12:19AM 52.5914 2.9661 112° Southeast 354 407 18,700 -1,800 Level FlightAware ADS-B
12:20AM 52.5717 3.0460 112° Southeast 356 410 17,700 -2,100 Descending FlightAware ADS-B (EHRD / RTM)
12:20AM 52.5504 3.1322 112° Southeast 352 405 16,400 -2,040 Descending FlightAware ADS-B (EHRD / RTM)
12:21AM 52.5289 3.2192 112° Southeast 354 407 15,300 -1,920 Descending FlightAware ADS-B (EHRD / RTM)
12:21AM 52.5027 3.3243 112° Southeast 350 403 14,000 -2,040 Descending FlightAware ADS-B (EHRD / RTM)
12:22AM 52.4817 3.4103 112° Southeast 348 400 12,800 -2,280 Descending FlightAware UK
12:22AM 52.4810 3.4113 112° Southeast 345 397 12,700 -1,860 Descending FlightAware ADS-B
12:23AM 52.4606 3.4955 112° Southeast 340 391 11,700 -1,800 Descending FlightAware UK
12:23AM 52.4633 3.4817 112° Southeast 336 387 11,600 -1,860 Descending FlightAware ADS-B (EHRD / RTM)
12:23AM 52.4390 3.5786 112° Southeast 321 369 10,600 -1,260 Descending FlightAware ADS-B (EHRD / RTM)
12:24AM 52.4232 3.6428 112° Southeast 278 320 10,300 -360 Descending FlightAware UK
12:24AM 52.4206 3.6521 113° Southeast 264 304 10,400 -360 Climbing FlightAware ADS-B (EHAM / AMS)
12:24AM 52.4070 3.7059 113° Southeast 246 283 10,100 -540 Descending FlightAware UK
12:24AM 52.4050 3.7138 111° Southeast 240 276 10,100  Level FlightAware ADS-B (KAUN)
12:25AM 52.4000 3.7331 111° Southeast 240 276 10,100 -420 Level FlightAware ADS-B (KAUN)
12:25AM 52.3924 3.7630 113° Southeast 231 266 9,900 -960 Descending FlightAware ADS-B (EHRD / RTM)
12:25AM 52.3843 3.7946 113° Southeast 232 267 9,500 -1,380 Descending FlightAware ADS-B (EHRD / RTM)
12:25AM 52.3832 3.7988 111° Southeast 229 264 9,400 -1,860 Descending FlightAware ADS-B (KAUN)
12:25AM 52.3790 3.8152 111° Southeast 233 268 9,100 -2,040 Descending FlightAware ADS-B (KAUN)
12:26AM 52.3703 3.8492 113° Southeast 248 285 8,400 -1,860 Descending FlightAware ADS-B (EHRD / RTM)
12:26AM 52.3619 3.8822 113° Southeast 253 291 7,900 -1,440 Descending FlightAware ADS-B (EHRD / RTM)
12:26AM 52.3527 3.9180 113° Southeast 253 291 7,500 -1,440 Descending FlightAware ADS-B (EHRD / RTM)
12:27AM 52.3447 3.9492 113° Southeast 254 292 7,000 -1,140 Descending FlightAware ADS-B (EHRD / RTM)
12:27AM 52.3308 4.0032 113° Southeast 246 283 6,600 -600 Descending FlightAware UK
12:27AM 52.3315 4.0009 113° Southeast 242 278 6,700 -300 Climbing FlightAware ADS-B (EHRD / RTM)
12:28AM 52.3230 4.0337 113° Southeast 234 269 6,500 -480 Descending FlightAware ADS-B (EHRD / RTM)
12:28AM 52.3148 4.0656 113° Southeast 224 258 6,400 -600 Descending FlightAware ADS-B (EHRD / RTM)
12:28AM 52.3064 4.0984 113° Southeast 234 269 6,100 -900 Descending FlightAware ADS-B (EHRD / RTM)
12:29AM 52.2972 4.1338 113° Southeast 253 291 5,800 -1,200 Descending FlightAware ADS-B (EHRD / RTM)
12:29AM 52.2887 4.1668 113° Southeast 253 291 5,300 -1,440 Descending FlightAware ADS-B (EHRD / RTM)
12:29AM 52.2790 4.2041 113° Southeast 253 291 4,900 -1,080 Descending FlightAware ADS-B (EHRD / RTM)
12:30AM 52.2710 4.2351 113° Southeast 251 289 4,600 -780 Descending FlightAware ADS-B (EHRD / RTM)
12:30AM 52.2617 4.2706 113° Southeast 241 277 4,400 -480 Descending FlightAware ADS-B (EHRD / RTM)
12:30AM 52.2530 4.3044 113° Southeast 231 266 4,300 -480 Descending FlightAware ADS-B (EHRD / RTM)
12:31AM 52.2448 4.3359 113° Southeast 221 254 4,100 -600 Descending FlightAware ADS-B (EHRD / RTM)
12:31AM 52.2365 4.3676 113° Southeast 216 249 3,900 -780 Descending FlightAware ADS-B (EHRD / RTM)
12:31AM 52.2302 4.3913 115° Southeast 218 251 3,600 -1,080 Descending FlightAware ADS-B (EHRD / RTM)
12:32AM 52.2199 4.4269 116° Southeast 219 252 3,200 -900 Descending FlightAware ADS-B (EHRD / RTM)
12:32AM 52.2128 4.4506 112° Southeast 215 247 3,000 -720 Descending FlightAware ADS-B (EHRD / RTM)
12:32AM 52.2098 4.4657 101° East 217 250 2,900 -1,200 Descending FlightAware ADS-B (EHRD / RTM)
12:32AM 52.2093 4.4721 112° Southeast 215 247 2,800 -360 Descending FlightAware ADS-B (EHRD / RTM)
12:32AM 52.2083 4.4933 93° East 218 251 2,800  Level FlightAware ADS-B (EHRD / RTM)
12:33AM 52.2093 4.4721 112° Southeast 215 247 2,800  Level FlightAware ADS-B (EHRD / RTM)
12:33AM 52.2089 4.5254 69° East 205 236 2,800 -300 Level FlightAware ADS-B (EHRD / RTM)
12:33AM 52.2131 4.5403 60° Northeast 201 231 2,700 -780 Descending FlightAware ADS-B (EHRD / RTM)
12:33AM 52.2199 4.5584 57° Northeast 201 231 2,500 -1,260 Descending FlightAware ADS-B (EHRD / RTM)
12:33AM 52.2263 4.5743 58° Northeast 196 226 2,200 -960 Descending FlightAware ADS-B (EHRD / RTM)
12:34AM 52.2395 4.6087 58° Northeast 178 205 1,700 -840 Descending FlightAware ADS-B (EHRD / RTM)
12:35AM 52.2722 4.6934 58° Northeast 129 148 600 -840 Descending FlightAware ADS-B (EHRD / RTM)